Loenerborg — PCHH — position and weather

sailwx.info

Track history (hours):
 
Tides and Currents Weather Stations Pressure Air Temp Water Temp Dewpoint Dewpoint Depression Visibility Wind Speed Wind Dir Waves Ship Positions

Loenerborg

Last reported at 2018-Jun-23 02:30 UTC. Time now 2018-Jun-23 02:56 UTC.
Position N 38°09' W 000°00'.

Length 108 m; draft 7.4 m.

Type: Cargo ship. MMSI: 244710117.

Date/timePositionNaut miles runAvg speedWind from/ knotsBaromVisibWave heightAir tempDewpointWater temp
2018-Jun-23 02:30N 38°09' W 000°00'5 9.6
2018-Jun-23 02:00N 38°05' W 000°04'5 9.7
2018-Jun-23 01:30N 38°01' W 000°07'5 9.7
2018-Jun-23 01:00N 37°57' W 000°11'14 9.9
2018-Jun-22 23:34N 37°45' W 000°21'110.1
2018-Jun-22 23:30N 37°44' W 000°21'510.1
2018-Jun-22 23:00N 37°40' W 000°25'510.2
2018-Jun-22 22:29N 37°36' W 000°28'1710.3
2018-Jun-22 20:50N 37°24' W 000°44'310.2
2018-Jun-22 20:30N 37°21' W 000°47'510.3
2018-Jun-22 20:00N 37°18' W 000°52'810.5
2018-Jun-22 19:16N 37°13' W 000°59'  
2018-Jun-20 14:04N 37°60' W 009°54'110.4
2018-Jun-20 13:58N 38°01' W 009°55'1010.4
2018-Jun-20 12:59N 38°11' W 009°58'510.3
2018-Jun-20 12:30N 38°15' W 009°59'510.4
2018-Jun-20 12:00N 38°21' W 010°00'510.5
2018-Jun-20 11:30N 38°26' W 010°02'1310.4
2018-Jun-20 10:14N 38°38' W 010°06'810.1
2018-Jun-20 09:27N 38°46' W 010°07'710.2
2018-Jun-20 08:48N 38°53' W 010°07'310.5
2018-Jun-20 08:30N 38°56' W 010°07'510.1
2018-Jun-20 08:00N 39°01' W 010°07'5 9.7
2018-Jun-20 07:30N 39°06' W 010°07'5 9.5
2018-Jun-20 07:00N 39°11' W 010°07'  
2018-Jun-15 07:42N 49°44' W 003°36'3 8.6
2018-Jun-15 07:23N 49°45' W 003°33'4 8.7
2018-Jun-15 06:57N 49°47' W 003°28'4 8.7
2018-Jun-15 06:30N 49°49' W 003°22'4 9.0
2018-Jun-15 06:00N 49°51' W 003°16'5 9.6
2018-Jun-15 05:30N 49°54' W 003°10'510.1
2018-Jun-15 05:00N 49°56' W 003°03'510.9
2018-Jun-15 04:30N 49°59' W 002°56'911.8
2018-Jun-15 03:46N 50°01' W 002°43'2714.2
2018-Jun-15 01:54N 50°08' W 002°02'2413.0
2018-Jun-15 00:01N 49°57' W 001°29'211.6
2018-Jun-14 23:51N 49°56' W 001°26'411.2
2018-Jun-14 23:30N 49°54' W 001°20'510.5
2018-Jun-14 22:59N 49°52' W 001°13'5 9.8
2018-Jun-14 22:30N 49°50' W 001°07'5 9.2
2018-Jun-14 22:00N 49°47' W 001°00'5 9.0
2018-Jun-14 21:30N 49°45' W 000°55'4 8.7
2018-Jun-14 21:00N 49°43' W 000°49'4 8.7
2018-Jun-14 20:30N 49°41' W 000°43'4 8.4
2018-Jun-14 20:00N 49°39' W 000°37'4 8.2
2018-Jun-14 19:30N 49°37' W 000°31'4 8.7
2018-Jun-14 19:00N 49°36' W 000°25'5 9.7
2018-Jun-14 18:30N 49°33' W 000°18'510.3
2018-Jun-14 18:01N 49°31' W 000°11'510.8
2018-Jun-14 17:30N 49°29' W 000°04'611.1
2018-Jun-14 17:01N 49°26' E 000°04'713.7
2018-Jun-14 16:31N 49°26' E 000°14'0 0.2
2018-Jun-14 15:59N 49°26' E 000°15'0 0.0
2018-Jun-14 15:29N 49°26' E 000°15'0 0.0
2018-Jun-14 14:59N 49°26' E 000°15'0 0.0
2018-Jun-14 14:29N 49°26' E 000°15'0 0.0
2018-Jun-14 13:59N 49°26' E 000°15'0 0.0
2018-Jun-14 13:29N 49°26' E 000°15'0 0.0
2018-Jun-14 12:59N 49°26' E 000°15'0 0.0
2018-Jun-14 12:29N 49°26' E 000°15'0 0.0
2018-Jun-14 11:59N 49°26' E 000°15'0 0.0
2018-Jun-14 11:29N 49°26' E 000°15'0 0.0
2018-Jun-14 10:59N 49°26' E 000°15'0 0.0
2018-Jun-14 10:29N 49°26' E 000°15'0 0.0
2018-Jun-14 09:59N 49°26' E 000°15'0 0.0
2018-Jun-14 09:29N 49°26' E 000°15'0 0.0
2018-Jun-14 08:59N 49°26' E 000°15'0 0.0
2018-Jun-14 08:29N 49°26' E 000°15'0 0.0
2018-Jun-14 07:59N 49°26' E 000°15'0 0.0
2018-Jun-14 07:29N 49°26' E 000°15'0 0.0
2018-Jun-14 06:59N 49°26' E 000°15'0 0.0
2018-Jun-14 06:29N 49°26' E 000°15'0 0.0
2018-Jun-14 05:59N 49°26' E 000°15'0 0.0
2018-Jun-14 05:29N 49°26' E 000°15'0 0.0
2018-Jun-14 04:59N 49°26' E 000°15'0 0.0
2018-Jun-14 04:29N 49°26' E 000°15'0 0.0
2018-Jun-14 03:59N 49°26' E 000°15'0 0.0
2018-Jun-14 03:29N 49°26' E 000°15'0 0.0
2018-Jun-14 02:59N 49°26' E 000°15'0 0.0
2018-Jun-14 02:29N 49°26' E 000°15'0 0.0
2018-Jun-14 01:59N 49°26' E 000°15'0 0.0
2018-Jun-14 01:29N 49°26' E 000°15'0 0.0
2018-Jun-14 00:59N 49°26' E 000°15'0 0.0
2018-Jun-14 00:29N 49°26' E 000°15'0 0.0
2018-Jun-13 23:59N 49°26' E 000°15'0 0.0
2018-Jun-13 23:29N 49°26' E 000°15'0 0.0
2018-Jun-13 22:59N 49°26' E 000°15'0 0.0
2018-Jun-13 22:29N 49°26' E 000°15'0 0.0
2018-Jun-13 21:59N 49°26' E 000°15'0 0.0
2018-Jun-13 21:29N 49°26' E 000°15'0 0.0
2018-Jun-13 20:59N 49°26' E 000°15'0 0.0
2018-Jun-13 20:29N 49°26' E 000°15'0 0.0
2018-Jun-13 19:59N 49°26' E 000°15'0 0.0
2018-Jun-13 19:29N 49°26' E 000°15'0 0.0
2018-Jun-13 18:59N 49°26' E 000°15'0 0.0
2018-Jun-13 18:29N 49°26' E 000°15'0 0.0
2018-Jun-13 17:59N 49°26' E 000°15'0 0.0
2018-Jun-13 17:29N 49°26' E 000°15'0 0.0
2018-Jun-13 16:59N 49°26' E 000°15'0 0.0
2018-Jun-13 16:29N 49°26' E 000°15'0 0.0
2018-Jun-13 15:59N 49°26' E 000°15'0 0.0
2018-Jun-13 15:29N 49°26' E 000°15'0 0.0
2018-Jun-13 14:59N 49°26' E 000°15'0 0.0
2018-Jun-13 14:29N 49°26' E 000°15'0 0.0
2018-Jun-13 13:56N 49°26' E 000°15'0 0.0
2018-Jun-13 13:29N 49°26' E 000°15'0 0.0
2018-Jun-13 12:59N 49°26' E 000°15'0 0.0
2018-Jun-13 12:29N 49°26' E 000°15'0 0.0
2018-Jun-13 11:59N 49°26' E 000°15'0 0.0
2018-Jun-13 11:29N 49°26' E 000°15'0 0.0
2018-Jun-13 10:59N 49°26' E 000°15'0 0.0
2018-Jun-13 10:29N 49°26' E 000°15'0 0.0
2018-Jun-13 09:59N 49°26' E 000°15'0 0.0
2018-Jun-13 09:29N 49°26' E 000°15'0 0.0
2018-Jun-13 08:59N 49°26' E 000°15'0 0.0
2018-Jun-13 08:29N 49°26' E 000°15'0 0.0
2018-Jun-13 07:59N 49°26' E 000°15'0 0.0
2018-Jun-13 07:29N 49°26' E 000°15'0 0.0
2018-Jun-13 06:59N 49°26' E 000°15'0 0.0
2018-Jun-13 06:29N 49°26' E 000°15'0 0.0
2018-Jun-13 05:59N 49°26' E 000°15'0 0.0
2018-Jun-13 05:29N 49°26' E 000°15'0 0.0
2018-Jun-13 04:59N 49°26' E 000°15'0 0.0
2018-Jun-13 04:29N 49°26' E 000°15'0 0.0
2018-Jun-13 03:59N 49°26' E 000°15'0 0.0
2018-Jun-13 03:29N 49°26' E 000°15'0 0.0
2018-Jun-13 02:59N 49°26' E 000°15'  
Track history (hours):
 
Tides and Currents Weather Stations Pressure Air Temp Water Temp Dewpoint Dewpoint Depression Visibility Wind Speed Wind Dir Waves Ship Positions

Loenerborg

Last reported at 2018-Jun-23 02:30 UTC. Time now 2018-Jun-23 02:56 UTC.
Position N 38°09' W 000°00'.

Length 108 m; draft 7.4 m.

Type: Cargo ship. MMSI: 244710117.

Date/timePositionNaut miles runAvg speedWind from/ knotsBaromVisibWave heightAir tempDewpointWater temp
2018-Jun-23 02:30N 38°09' W 000°00'5 9.6
2018-Jun-23 02:00N 38°05' W 000°04'5 9.7
2018-Jun-23 01:30N 38°01' W 000°07'5 9.7
2018-Jun-23 01:00N 37°57' W 000°11'14 9.9
2018-Jun-22 23:34N 37°45' W 000°21'110.1
2018-Jun-22 23:30N 37°44' W 000°21'510.1
2018-Jun-22 23:00N 37°40' W 000°25'510.2
2018-Jun-22 22:29N 37°36' W 000°28'1710.3
2018-Jun-22 20:50N 37°24' W 000°44'310.2
2018-Jun-22 20:30N 37°21' W 000°47'510.3
2018-Jun-22 20:00N 37°18' W 000°52'810.5
2018-Jun-22 19:16N 37°13' W 000°59'  
2018-Jun-20 14:04N 37°60' W 009°54'110.4
2018-Jun-20 13:58N 38°01' W 009°55'1010.4
2018-Jun-20 12:59N 38°11' W 009°58'510.3
2018-Jun-20 12:30N 38°15' W 009°59'510.4
2018-Jun-20 12:00N 38°21' W 010°00'510.5
2018-Jun-20 11:30N 38°26' W 010°02'1310.4
2018-Jun-20 10:14N 38°38' W 010°06'810.1
2018-Jun-20 09:27N 38°46' W 010°07'710.2
2018-Jun-20 08:48N 38°53' W 010°07'310.5
2018-Jun-20 08:30N 38°56' W 010°07'510.1
2018-Jun-20 08:00N 39°01' W 010°07'5 9.7
2018-Jun-20 07:30N 39°06' W 010°07'5 9.5
2018-Jun-20 07:00N 39°11' W 010°07'  
2018-Jun-15 07:42N 49°44' W 003°36'3 8.6
2018-Jun-15 07:23N 49°45' W 003°33'4 8.7
2018-Jun-15 06:57N 49°47' W 003°28'4 8.7
2018-Jun-15 06:30N 49°49' W 003°22'4 9.0
2018-Jun-15 06:00N 49°51' W 003°16'5 9.6
2018-Jun-15 05:30N 49°54' W 003°10'510.1
2018-Jun-15 05:00N 49°56' W 003°03'510.9
2018-Jun-15 04:30N 49°59' W 002°56'911.8
2018-Jun-15 03:46N 50°01' W 002°43'2714.2
2018-Jun-15 01:54N 50°08' W 002°02'2413.0
2018-Jun-15 00:01N 49°57' W 001°29'211.6
2018-Jun-14 23:51N 49°56' W 001°26'411.2
2018-Jun-14 23:30N 49°54' W 001°20'510.5
2018-Jun-14 22:59N 49°52' W 001°13'5 9.8
2018-Jun-14 22:30N 49°50' W 001°07'5 9.2
2018-Jun-14 22:00N 49°47' W 001°00'5 9.0
2018-Jun-14 21:30N 49°45' W 000°55'4 8.7
2018-Jun-14 21:00N 49°43' W 000°49'4 8.7
2018-Jun-14 20:30N 49°41' W 000°43'4 8.4
2018-Jun-14 20:00N 49°39' W 000°37'4 8.2
2018-Jun-14 19:30N 49°37' W 000°31'4 8.7
2018-Jun-14 19:00N 49°36' W 000°25'5 9.7
2018-Jun-14 18:30N 49°33' W 000°18'510.3
2018-Jun-14 18:01N 49°31' W 000°11'510.8
2018-Jun-14 17:30N 49°29' W 000°04'611.1
2018-Jun-14 17:01N 49°26' E 000°04'713.7
2018-Jun-14 16:31N 49°26' E 000°14'0 0.2
2018-Jun-14 15:59N 49°26' E 000°15'0 0.0
2018-Jun-14 15:29N 49°26' E 000°15'0 0.0
2018-Jun-14 14:59N 49°26' E 000°15'0 0.0
2018-Jun-14 14:29N 49°26' E 000°15'0 0.0
2018-Jun-14 13:59N 49°26' E 000°15'0 0.0
2018-Jun-14 13:29N 49°26' E 000°15'0 0.0
2018-Jun-14 12:59N 49°26' E 000°15'0 0.0
2018-Jun-14 12:29N 49°26' E 000°15'0 0.0
2018-Jun-14 11:59N 49°26' E 000°15'0 0.0
2018-Jun-14 11:29N 49°26' E 000°15'0 0.0
2018-Jun-14 10:59N 49°26' E 000°15'0 0.0
2018-Jun-14 10:29N 49°26' E 000°15'0 0.0
2018-Jun-14 09:59N 49°26' E 000°15'0 0.0
2018-Jun-14 09:29N 49°26' E 000°15'0 0.0
2018-Jun-14 08:59N 49°26' E 000°15'0 0.0
2018-Jun-14 08:29N 49°26' E 000°15'0 0.0
2018-Jun-14 07:59N 49°26' E 000°15'0 0.0
2018-Jun-14 07:29N 49°26' E 000°15'0 0.0
2018-Jun-14 06:59N 49°26' E 000°15'0 0.0
2018-Jun-14 06:29N 49°26' E 000°15'0 0.0
2018-Jun-14 05:59N 49°26' E 000°15'0 0.0
2018-Jun-14 05:29N 49°26' E 000°15'0 0.0
2018-Jun-14 04:59N 49°26' E 000°15'0 0.0
2018-Jun-14 04:29N 49°26' E 000°15'0 0.0
2018-Jun-14 03:59N 49°26' E 000°15'0 0.0
2018-Jun-14 03:29N 49°26' E 000°15'0 0.0
2018-Jun-14 02:59N 49°26' E 000°15'0 0.0
2018-Jun-14 02:29N 49°26' E 000°15'0 0.0
2018-Jun-14 01:59N 49°26' E 000°15'0 0.0
2018-Jun-14 01:29N 49°26' E 000°15'0 0.0
2018-Jun-14 00:59N 49°26' E 000°15'0 0.0
2018-Jun-14 00:29N 49°26' E 000°15'0 0.0
2018-Jun-13 23:59N 49°26' E 000°15'0 0.0
2018-Jun-13 23:29N 49°26' E 000°15'0 0.0
2018-Jun-13 22:59N 49°26' E 000°15'0 0.0
2018-Jun-13 22:29N 49°26' E 000°15'0 0.0
2018-Jun-13 21:59N 49°26' E 000°15'0 0.0
2018-Jun-13 21:29N 49°26' E 000°15'0 0.0
2018-Jun-13 20:59N 49°26' E 000°15'0 0.0
2018-Jun-13 20:29N 49°26' E 000°15'0 0.0
2018-Jun-13 19:59N 49°26' E 000°15'0 0.0
2018-Jun-13 19:29N 49°26' E 000°15'0 0.0
2018-Jun-13 18:59N 49°26' E 000°15'0 0.0
2018-Jun-13 18:29N 49°26' E 000°15'0 0.0
2018-Jun-13 17:59N 49°26' E 000°15'0 0.0
2018-Jun-13 17:29N 49°26' E 000°15'0 0.0
2018-Jun-13 16:59N 49°26' E 000°15'0 0.0
2018-Jun-13 16:29N 49°26' E 000°15'0 0.0
2018-Jun-13 15:59N 49°26' E 000°15'0 0.0
2018-Jun-13 15:29N 49°26' E 000°15'0 0.0
2018-Jun-13 14:59N 49°26' E 000°15'0 0.0
2018-Jun-13 14:29N 49°26' E 000°15'0 0.0
2018-Jun-13 13:56N 49°26' E 000°15'0 0.0
2018-Jun-13 13:29N 49°26' E 000°15'0 0.0
2018-Jun-13 12:59N 49°26' E 000°15'0 0.0
2018-Jun-13 12:29N 49°26' E 000°15'0 0.0
2018-Jun-13 11:59N 49°26' E 000°15'0 0.0
2018-Jun-13 11:29N 49°26' E 000°15'0 0.0
2018-Jun-13 10:59N 49°26' E 000°15'0 0.0
2018-Jun-13 10:29N 49°26' E 000°15'0 0.0
2018-Jun-13 09:59N 49°26' E 000°15'0 0.0
2018-Jun-13 09:29N 49°26' E 000°15'0 0.0
2018-Jun-13 08:59N 49°26' E 000°15'0 0.0
2018-Jun-13 08:29N 49°26' E 000°15'0 0.0
2018-Jun-13 07:59N 49°26' E 000°15'0 0.0
2018-Jun-13 07:29N 49°26' E 000°15'0 0.0
2018-Jun-13 06:59N 49°26' E 000°15'0 0.0
2018-Jun-13 06:29N 49°26' E 000°15'0 0.0
2018-Jun-13 05:59N 49°26' E 000°15'0 0.0
2018-Jun-13 05:29N 49°26' E 000°15'0 0.0
2018-Jun-13 04:59N 49°26' E 000°15'0 0.0
2018-Jun-13 04:29N 49°26' E 000°15'0 0.0
2018-Jun-13 03:59N 49°26' E 000°15'0 0.0
2018-Jun-13 03:29N 49°26' E 000°15'0 0.0
2018-Jun-13 02:59N 49°26' E 000°15'  

Dump ship's entire track history